Time;durP1;ratioP1;P1;durP2;ratioP2;P2;SDS_P1;SDS_P2;PMS_P1;PMS_P2;Temp;Humidity;BMP_temperature;BMP_pressure;BME280_temperature;BME280_humidity;BME280_pressure;Samples;Min_cycle;Max_cycle;Signal;HPM_P1;HPM_P2
2021/12/29 00:01:01;;;;;;;28.63;10.23;;;;;;;-8.22;100.00;96913.09;5069777;28;20336;-55
2021/12/29 00:03:28;;;;;;;22.60;9.57;;;;;;;-8.18;100.00;96916.44;5070047;28;20295;-56
2021/12/29 00:05:55;;;;;;;22.67;8.63;;;;;;;-8.26;100.00;96913.97;5069807;28;20291;-53
2021/12/29 00:08:22;;;;;;;24.23;10.90;;;;;;;-8.34;100.00;96914.91;5069794;28;20455;-55
2021/12/29 00:10:54;;;;;;;27.63;10.10;;;;;;;-8.32;100.00;96914.03;5069470;28;20390;-56
2021/12/29 00:13:22;;;;;;;23.63;10.97;;;;;;;-8.28;100.00;96914.84;5069799;28;20399;-54
2021/12/29 00:15:56;;;;;;;25.10;10.63;;;;;;;-8.21;100.00;96912.22;5069782;28;20653;-54
2021/12/29 00:18:24;;;;;;;20.50;8.23;;;;;;;-8.20;100.00;96905.41;5069050;28;20301;-55
2021/12/29 00:20:52;;;;;;;29.00;11.23;;;;;;;-8.26;100.00;96911.44;5070021;28;20298;-55
2021/12/29 00:23:19;;;;;;;28.23;10.40;;;;;;;-8.17;100.00;96911.31;5071062;28;20290;-54
2021/12/29 00:25:46;;;;;;;27.77;9.43;;;;;;;-8.13;100.00;96897.66;5069177;28;20295;-56
2021/12/29 00:28:15;;;;;;;9.03;4.27;;;;;;;-8.23;100.00;96896.06;5069748;28;20287;-55
2021/12/29 00:30:42;;;;;;;23.53;7.67;;;;;;;-8.29;100.00;96900.38;5051707;28;20330;-55
2021/12/29 00:33:27;;;;;;;21.07;10.47;;;;;;;-8.29;100.00;96900.38;5069823;28;20294;-54
2021/12/29 00:36:13;;;;;;;13.67;6.60;;;;;;;-8.36;100.00;96888.56;5069416;28;20294;-57
2021/12/29 00:38:59;;;;;;;27.07;10.40;;;;;;;-8.60;100.00;96879.44;5068971;28;20296;-55
2021/12/29 00:41:55;;;;;;;24.97;9.87;;;;;;;-8.54;100.00;96883.63;5069333;28;20313;-55
2021/12/29 00:44:23;;;;;;;19.63;8.47;;;;;;;-8.62;100.00;96888.88;5069432;28;20286;-53
2021/12/29 00:47:04;;;;;;;16.67;6.70;;;;;;;-8.71;100.00;96886.41;5068171;28;20774;-54
2021/12/29 00:49:33;;;;;;;19.37;7.67;;;;;;;-8.77;100.00;96896.69;5069571;28;20290;-55
2021/12/29 00:52:01;;;;;;;17.57;5.00;;;;;;;-8.65;100.00;96894.00;5068739;28;20287;-54
2021/12/29 00:54:29;;;;;;;13.47;5.43;;;;;;;-8.80;100.00;96889.03;5068853;28;20293;-57
2021/12/29 00:56:56;;;;;;;22.73;7.73;;;;;;;-8.94;100.00;96883.22;5070276;28;20293;-56
2021/12/29 00:59:24;;;;;;;18.60;6.30;;;;;;;-8.97;100.00;96877.31;5069902;28;20295;-55
2021/12/29 01:01:52;;;;;;;20.90;8.93;;;;;;;-8.98;100.00;96879.00;5069904;28;20802;-56
2021/12/29 01:04:20;;;;;;;17.23;7.80;;;;;;;-8.98;100.00;96870.50;5070021;28;20381;-56
2021/12/29 01:06:47;;;;;;;19.93;8.50;;;;;;;-8.95;100.00;96866.22;5070136;28;20393;-57
2021/12/29 01:09:15;;;;;;;9.67;5.60;;;;;;;-8.97;100.00;96875.59;5069893;28;20369;-54
2021/12/29 01:11:42;;;;;;;11.30;5.73;;;;;;;-8.94;100.00;96877.25;5070194;28;20361;-56
2021/12/29 01:14:09;;;;;;;27.53;9.17;;;;;;;-8.99;100.00;96869.69;5069706;28;20290;-56
2021/12/29 01:16:39;;;;;;;15.50;6.37;;;;;;;-8.94;100.00;96860.28;5068820;28;20305;-56
2021/12/29 01:19:09;;;;;;;16.60;5.47;;;;;;;-9.02;100.00;96854.41;5070196;28;20297;-57
2021/12/29 01:21:38;;;;;;;14.20;7.10;;;;;;;-9.11;100.00;96851.91;5069684;28;20290;-54
2021/12/29 01:24:07;;;;;;;14.87;5.63;;;;;;;-9.16;100.00;96847.72;5069957;28;20371;-54
2021/12/29 01:26:34;;;;;;;11.43;5.33;;;;;;;-9.08;100.00;96854.44;5069651;28;20297;-58
2021/12/29 01:29:01;;;;;;;19.43;6.97;;;;;;;-9.10;100.00;96861.28;5072109;28;20374;-56
2021/12/29 01:31:28;;;;;;;22.77;9.10;;;;;;;-9.00;100.00;96862.88;5073689;28;20627;-57
2021/12/29 01:33:59;;;;;;;19.50;6.50;;;;;;;-9.01;100.00;96858.63;5072473;28;20789;-56
2021/12/29 01:36:27;;;;;;;19.07;7.60;;;;;;;-9.07;100.00;96871.44;5074251;28;20318;-56
2021/12/29 01:38:54;;;;;;;17.47;7.63;;;;;;;-9.15;100.00;96865.53;5074368;28;20298;-55
2021/12/29 01:41:21;;;;;;;20.30;8.03;;;;;;;-9.14;100.00;96868.94;5073630;28;20326;-54
2021/12/29 01:43:48;;;;;;;16.93;7.17;;;;;;;-9.09;100.00;96857.00;5075182;28;20655;-51
2021/12/29 01:46:15;;;;;;;23.70;9.20;;;;;;;-9.08;100.00;96859.53;5074791;28;20344;-55
2021/12/29 01:48:42;;;;;;;15.83;6.47;;;;;;;-9.03;100.00;96850.16;5073168;28;20369;-54
2021/12/29 01:51:11;;;;;;;14.50;7.13;;;;;;;-8.99;100.00;96854.38;5073664;28;20286;-55
2021/12/29 01:53:47;;;;;;;19.77;7.57;;;;;;;-9.09;100.00;96846.81;5072372;28;20394;-55
2021/12/29 01:56:14;;;;;;;17.80;6.57;;;;;;;-9.10;100.00;96838.34;5073187;28;20283;-54
2021/12/29 01:58:41;;;;;;;11.70;5.90;;;;;;;-9.18;100.00;96849.44;5072911;28;20291;-57
2021/12/29 02:01:08;;;;;;;22.80;7.17;;;;;;;-9.11;100.00;96840.91;5071639;28;20295;-57
2021/12/29 02:03:35;;;;;;;24.97;9.07;;;;;;;-9.02;100.00;96841.66;5071685;28;20391;-55
2021/12/29 02:06:03;;;;;;;20.43;8.97;;;;;;;-8.89;100.00;96835.56;5072986;28;20746;-53
2021/12/29 02:08:32;;;;;;;9.80;5.10;;;;;;;-8.91;100.00;96827.09;5073089;28;20341;-56
2021/12/29 02:11:00;;;;;;;18.77;8.50;;;;;;;-9.05;100.00;96838.28;5072988;28;20286;-55
2021/12/29 02:13:28;;;;;;;17.00;6.60;;;;;;;-9.06;100.00;96831.50;5072914;28;20310;-55
2021/12/29 02:15:56;;;;;;;18.87;8.03;;;;;;;-9.12;100.00;96836.66;5072909;28;20297;-55
2021/12/29 02:18:25;;;;;;;13.20;6.13;;;;;;;-9.23;100.00;96836.75;5072919;28;20314;-55
2021/12/29 02:20:54;;;;;;;18.63;8.50;;;;;;;-9.26;100.00;96841.03;5072827;28;20385;-54
2021/12/29 02:23:30;;;;;;;19.40;6.73;;;;;;;-9.11;100.00;96826.44;5068000;28;20286;-55
2021/12/29 02:25:58;;;;;;;21.93;9.77;;;;;;;-9.08;100.00;96817.94;5072569;28;20322;-56
2021/12/29 02:28:28;;;;;;;11.53;5.53;;;;;;;-9.10;100.00;96815.41;5071270;28;20755;-56
2021/12/29 02:30:58;;;;;;;25.20;9.47;;;;;;;-9.11;100.00;96811.13;5068891;28;20282;-57
2021/12/29 02:33:25;;;;;;;17.67;6.67;;;;;;;-9.23;100.00;96811.25;5069913;28;20329;-55
2021/12/29 02:35:54;;;;;;;17.80;7.13;;;;;;;-9.29;100.00;96790.94;5071122;28;20291;-56
2021/12/29 02:38:25;;;;;;;20.27;8.17;;;;;;;-9.21;100.00;96801.06;5070175;28;20344;-57
2021/12/29 02:40:54;;;;;;;16.47;6.70;;;;;;;-9.19;100.00;96801.91;5069781;28;20306;-54
2021/12/29 02:43:23;;;;;;;22.13;8.33;;;;;;;-9.31;100.00;96801.97;5068371;28;20362;-57
2021/12/29 02:45:54;;;;;;;32.37;9.73;;;;;;;-9.30;100.00;96801.97;5069137;28;20289;-55
2021/12/29 02:48:23;;;;;;;16.53;6.20;;;;;;;-9.42;100.00;96804.63;5069915;28;20405;-56
2021/12/29 02:50:54;;;;;;;19.77;7.13;;;;;;;-9.37;100.00;96781.66;5069833;28;20301;-58
2021/12/29 02:53:24;;;;;;;25.53;7.90;;;;;;;-9.35;100.00;96778.25;5069607;28;20291;-56
2021/12/29 02:55:51;;;;;;;20.40;7.80;;;;;;;-9.34;100.00;96774.00;5069753;28;20306;-54
2021/12/29 02:58:18;;;;;;;18.73;6.30;;;;;;;-9.34;100.00;96768.91;5069588;28;20703;-56
2021/12/29 03:00:45;;;;;;;24.10;10.07;;;;;;;-9.57;100.00;96756.38;5069385;28;20793;-56
2021/12/29 03:03:17;;;;;;;19.37;7.33;;;;;;;-9.55;100.00;96748.72;5069579;28;20778;-56
2021/12/29 03:05:45;;;;;;;20.10;7.53;;;;;;;-9.61;100.00;96752.16;5067382;28;20378;-56
2021/12/29 03:08:12;;;;;;;19.80;9.00;;;;;;;-9.46;100.00;96753.72;5068097;28;20360;-56
2021/12/29 03:10:42;;;;;;;18.70;7.07;;;;;;;-9.34;100.00;96764.63;5069272;28;20740;-55
2021/12/29 03:13:09;;;;;;;21.90;8.43;;;;;;;-9.41;100.00;96763.00;5069203;28;20282;-57
2021/12/29 03:15:37;;;;;;;20.67;9.20;;;;;;;-9.73;100.00;96759.91;5067289;28;20344;-55
2021/12/29 03:18:06;;;;;;;30.37;10.47;;;;;;;-9.74;100.00;96763.28;5069050;28;20336;-57
2021/12/29 03:20:33;;;;;;;22.57;9.90;;;;;;;-9.56;100.00;96763.13;5069519;28;20299;-57
2021/12/29 03:23:00;;;;;;;27.87;11.37;;;;;;;-9.53;100.00;96762.25;5073557;28;20318;-56
2021/12/29 03:25:28;;;;;;;24.13;8.77;;;;;;;-9.50;100.00;96767.34;5071779;28;21115;-57
2021/12/29 03:27:59;;;;;;;31.33;9.97;;;;;;;-9.52;100.00;96769.91;5071743;28;20298;-52
2021/12/29 03:30:27;;;;;;;33.30;13.27;;;;;;;-9.52;100.00;96779.25;5071031;28;21001;-54
2021/12/29 03:33:03;;;;;;;13.00;6.97;;;;;;;-9.44;100.00;96788.53;5071702;28;20684;-54
2021/12/29 03:35:32;;;;;;;28.77;12.70;;;;;;;-9.48;100.00;96791.09;5072808;28;20275;-53
2021/12/29 03:38:00;;;;;;;16.13;8.00;;;;;;;-9.45;100.00;96786.00;5071737;28;20287;-53
2021/12/29 03:40:27;;;;;;;27.50;11.73;;;;;;;-9.41;100.00;96792.75;5071225;28;20294;-57
2021/12/29 03:42:57;;;;;;;23.50;11.23;;;;;;;-9.29;100.00;96797.72;5070801;28;20296;-57
2021/12/29 03:45:24;;;;;;;23.50;10.00;;;;;;;-9.32;100.00;96802.84;5070246;28;20410;-57
2021/12/29 03:47:51;;;;;;;28.23;9.97;;;;;;;-9.40;100.00;96800.38;5071400;28;20309;-57
2021/12/29 03:50:18;;;;;;;15.47;7.90;;;;;;;-9.56;100.00;96805.63;5070786;28;20402;-56
2021/12/29 03:52:45;;;;;;;31.37;11.30;;;;;;;-9.63;100.00;96802.25;5070532;28;21112;-54
2021/12/29 03:55:13;;;;;;;24.53;10.50;;;;;;;-9.64;100.00;96803.09;5071133;28;20286;-57
2021/12/29 03:57:40;;;;;;;21.77;9.63;;;;;;;-9.69;100.00;96809.94;5070908;28;20373;-55
2021/12/29 04:00:12;;;;;;;27.53;10.33;;;;;;;-9.61;100.00;96813.28;5070751;28;20698;-57
2021/12/29 04:02:40;;;;;;;29.00;10.67;;;;;;;-9.51;100.00;96817.44;5070744;28;20319;-57
2021/12/29 04:05:08;;;;;;;32.93;13.07;;;;;;;-9.40;100.00;96815.66;5070683;28;20325;-57
2021/12/29 04:07:35;;;;;;;29.50;11.13;;;;;;;-9.40;100.00;96819.91;5070546;28;20648;-55
2021/12/29 04:10:04;;;;;;;28.10;11.13;;;;;;;-9.33;100.00;96822.38;5070427;28;20294;-54
2021/12/29 04:12:31;;;;;;;26.63;10.03;;;;;;;-9.37;100.00;96823.25;5070852;28;20271;-55
2021/12/29 04:14:58;;;;;;;29.20;12.10;;;;;;;-9.33;100.00;96824.91;5070548;28;20310;-57
2021/12/29 04:17:36;;;;;;;28.40;10.87;;;;;;;-9.30;100.00;96830.00;5070577;28;20809;-57
2021/12/29 04:22:49;;;;;;;30.33;11.47;;;;;;;-9.33;100.00;96817.28;5070505;28;20637;-55
2021/12/29 04:25:18;;;;;;;26.00;10.83;;;;;;;-9.29;100.00;96823.22;5070153;28;20826;-54
2021/12/29 04:27:46;;;;;;;28.40;11.33;;;;;;;-9.24;100.00;96827.41;5070772;28;20315;-54
2021/12/29 04:30:14;;;;;;;23.37;10.50;;;;;;;-9.35;100.00;96808.81;5070447;28;20290;-56
2021/12/29 04:32:42;;;;;;;26.73;12.97;;;;;;;-9.37;100.00;96817.34;5070422;28;20378;-56
2021/12/29 04:35:09;;;;;;;33.17;11.67;;;;;;;-9.39;100.00;96812.25;5070218;28;20374;-54
2021/12/29 04:37:36;;;;;;;26.17;11.50;;;;;;;-9.49;100.00;96803.00;5070173;28;20282;-55
2021/12/29 04:40:04;;;;;;;33.00;11.00;;;;;;;-9.49;100.00;96810.63;5070276;28;20290;-55
2021/12/29 04:42:31;;;;;;;30.60;12.90;;;;;;;-9.55;100.00;96802.19;5070675;28;20321;-56
2021/12/29 04:44:58;;;;;;;28.30;12.93;;;;;;;-9.52;100.00;96805.56;5070063;28;20380;-57
2021/12/29 04:47:29;;;;;;;34.93;13.47;;;;;;;-9.58;100.00;96803.06;5070092;28;20682;-55
2021/12/29 04:50:00;;;;;;;33.40;13.70;;;;;;;-9.53;100.00;96803.88;5068944;28;20852;-56
2021/12/29 04:52:27;;;;;;;31.43;11.67;;;;;;;-9.52;100.00;96800.47;5070009;28;20724;-52
2021/12/29 04:54:54;;;;;;;20.80;10.07;;;;;;;-9.73;100.00;96792.16;5069818;28;20286;-55
2021/12/29 04:57:21;;;;;;;23.50;9.43;;;;;;;-9.79;100.00;96780.31;5069891;28;20377;-57
2021/12/29 04:59:49;;;;;;;19.23;8.63;;;;;;;-9.81;100.00;96788.81;5070025;28;20334;-56
2021/12/29 05:02:16;;;;;;;22.43;9.33;;;;;;;-9.82;100.00;96785.41;5069707;28;20886;-57
2021/12/29 05:04:48;;;;;;;27.17;10.80;;;;;;;-9.81;100.00;96791.38;5069745;28;20297;-56
2021/12/29 05:10:01;;;;;;;37.10;12.60;;;;;;;-9.91;100.00;96785.50;5069816;28;20302;-57
2021/12/29 05:12:28;;;;;;;25.43;10.37;;;;;;;-9.80;100.00;96783.72;5069735;28;20287;-55
2021/12/29 05:14:55;;;;;;;20.63;9.57;;;;;;;-9.72;100.00;96781.97;5068743;28;20374;-55
2021/12/29 05:17:22;;;;;;;23.20;11.20;;;;;;;-9.68;100.00;96777.66;5069783;28;20287;-57
2021/12/29 05:19:49;;;;;;;20.60;10.03;;;;;;;-9.81;100.00;96761.63;5069629;28;20735;-56
2021/12/29 05:22:18;;;;;;;27.00;11.37;;;;;;;-9.70;100.00;96759.84;5069822;28;20302;-54
2021/12/29 05:24:45;;;;;;;29.10;11.60;;;;;;;-9.67;100.00;96764.09;5069598;28;20293;-56
2021/12/29 05:27:12;;;;;;;26.13;10.77;;;;;;;-9.69;100.00;96750.53;5068611;28;20291;-56
2021/12/29 05:29:39;;;;;;;30.63;10.57;;;;;;;-9.64;100.00;96758.97;5069370;28;20711;-50
2021/12/29 05:32:07;;;;;;;26.90;9.83;;;;;;;-9.78;100.00;96763.34;5069845;28;20644;-55
2021/12/29 05:34:35;;;;;;;26.50;11.50;;;;;;;-9.85;100.00;96759.16;5069575;28;20298;-54
2021/12/29 05:37:02;;;;;;;22.07;8.83;;;;;;;-9.92;100.00;96763.41;5069470;28;20763;-55
2021/12/29 05:39:30;;;;;;;20.67;10.40;;;;;;;-10.01;100.00;96760.94;5069328;28;20348;-54
2021/12/29 05:41:57;;;;;;;16.73;8.30;;;;;;;-10.03;100.00;96765.19;5067106;28;20298;-54
2021/12/29 05:44:24;;;;;;;19.20;8.10;;;;;;;-9.88;100.00;96776.97;5069605;28;20975;-49
2021/12/29 05:46:51;;;;;;;19.83;8.00;;;;;;;-9.84;100.00;96774.41;5070663;28;20287;-56
2021/12/29 05:49:18;;;;;;;32.27;12.13;;;;;;;-9.72;100.00;96781.97;5069832;28;20405;-53
2021/12/29 05:51:45;;;;;;;30.13;11.33;;;;;;;-9.76;100.00;96787.94;5069742;28;20398;-55
2021/12/29 05:54:12;;;;;;;15.77;7.67;;;;;;;-9.87;100.00;96771.03;5068250;28;20988;-55
2021/12/29 05:56:41;;;;;;;27.77;11.53;;;;;;;-9.92;100.00;96778.69;5069735;28;20291;-56
2021/12/29 05:59:09;;;;;;;24.53;10.13;;;;;;;-9.93;100.00;96771.91;5069390;28;20282;-54
2021/12/29 06:01:36;;;;;;;16.17;8.83;;;;;;;-9.99;100.00;96782.16;5069167;28;20409;-56
2021/12/29 06:04:03;;;;;;;24.73;9.60;;;;;;;-10.05;100.00;96787.28;5069078;28;20322;-55
2021/12/29 06:06:30;;;;;;;29.77;11.83;;;;;;;-10.02;100.00;96787.25;5069416;28;20382;-56
2021/12/29 06:08:57;;;;;;;28.10;10.43;;;;;;;-9.94;100.00;96790.59;5066837;28;20378;-54
2021/12/29 06:11:24;;;;;;;18.10;8.60;;;;;;;-9.99;100.00;96787.25;5068808;28;20655;-54
2021/12/29 06:13:53;;;;;;;23.00;10.13;;;;;;;-9.93;100.00;96791.44;5069919;28;20352;-56
2021/12/29 06:16:20;;;;;;;21.20;9.20;;;;;;;-9.84;100.00;96792.25;5070223;28;20769;-56
2021/12/29 06:18:47;;;;;;;28.30;11.23;;;;;;;-9.82;100.00;96795.59;5072832;28;20397;-53
2021/12/29 06:21:16;;;;;;;25.67;10.83;;;;;;;-9.81;100.00;96784.53;5072667;28;20302;-55
2021/12/29 06:23:44;;;;;;;22.57;8.33;;;;;;;-9.95;100.00;96788.06;5071137;28;20299;-56
2021/12/29 06:26:12;;;;;;;24.00;10.23;;;;;;;-10.03;100.00;96777.91;5072076;28;20294;-53
2021/12/29 06:28:39;;;;;;;19.20;9.50;;;;;;;-10.01;100.00;96776.22;5072228;28;20291;-55
2021/12/29 06:31:08;;;;;;;28.03;10.50;;;;;;;-10.00;100.00;96770.25;5072661;28;20283;-54
2021/12/29 06:33:35;;;;;;;23.13;11.07;;;;;;;-10.03;100.00;96772.00;5071268;28;20716;-52
2021/12/29 06:36:02;;;;;;;23.37;9.70;;;;;;;-10.18;100.00;96775.47;5072456;28;20791;-55
2021/12/29 06:38:29;;;;;;;13.93;7.90;;;;;;;-10.18;100.00;96783.09;5072240;28;20370;-56
2021/12/29 06:40:56;;;;;;;18.27;7.73;;;;;;;-10.03;100.00;96789.81;5072391;28;20295;-55
2021/12/29 06:43:22;;;;;;;17.83;8.07;;;;;;;-10.08;100.00;96802.56;5072463;28;20775;-53
2021/12/29 06:45:49;;;;;;;22.17;8.63;;;;;;;-10.02;100.00;96796.59;5070909;28;20302;-57
2021/12/29 06:48:18;;;;;;;16.03;6.97;;;;;;;-9.96;100.00;96796.56;5072522;28;20287;-52
2021/12/29 06:50:45;;;;;;;26.93;11.40;;;;;;;-9.99;100.00;96802.53;5070760;28;20290;-55
2021/12/29 06:53:12;;;;;;;26.03;10.77;;;;;;;-10.02;100.00;96799.13;5072356;28;20291;-52
2021/12/29 06:55:42;;;;;;;24.07;9.63;;;;;;;-9.88;100.00;96804.97;5071888;28;20305;-55
2021/12/29 06:58:09;;;;;;;28.97;13.50;;;;;;;-9.90;100.00;96799.91;5072297;28;20286;-54
2021/12/29 07:00:37;;;;;;;32.53;13.30;;;;;;;-9.91;100.00;96800.75;5071573;28;20324;-54
2021/12/29 07:03:05;;;;;;;18.03;7.93;;;;;;;-9.87;100.00;96799.03;5071426;28;20291;-55
2021/12/29 07:05:33;;;;;;;65.63;32.97;;;;;;;-9.79;100.00;96803.22;5071987;28;20332;-54
2021/12/29 07:08:00;;;;;;;28.13;12.30;;;;;;;-9.80;100.00;96795.59;5071780;28;20369;-54
2021/12/29 07:10:27;;;;;;;25.10;10.80;;;;;;;-9.81;100.00;96794.72;5073044;28;20283;-54
2021/12/29 07:12:54;;;;;;;30.90;12.53;;;;;;;-9.75;100.00;96789.59;5071821;28;20856;-54
2021/12/29 07:15:21;;;;;;;31.67;11.30;;;;;;;-9.65;100.00;96790.38;5071965;28;20290;-56
2021/12/29 07:17:48;;;;;;;33.00;10.73;;;;;;;-9.71;100.00;96778.53;5072328;28;20287;-54
2021/12/29 07:20:15;;;;;;;22.53;9.97;;;;;;;-9.71;100.00;96793.81;5072723;28;20283;-54
2021/12/29 07:22:43;;;;;;;29.00;10.77;;;;;;;-9.68;100.00;96782.75;5071506;28;20329;-55
2021/12/29 07:25:10;;;;;;;24.13;10.57;;;;;;;-9.68;100.00;96801.44;5069553;28;20761;-53
2021/12/29 07:27:38;;;;;;;23.37;11.13;;;;;;;-9.60;100.00;96783.56;5072687;28;20801;-53
2021/12/29 07:30:06;;;;;;;26.70;9.60;;;;;;;-9.57;100.00;96779.28;5071573;28;20311;-54
2021/12/29 07:32:33;;;;;;;29.30;11.80;;;;;;;-9.41;100.00;96762.19;5071669;28;20410;-54
2021/12/29 07:35:00;;;;;;;32.17;10.47;;;;;;;-9.29;100.00;96770.56;5071721;28;20323;-67
2021/12/29 07:37:27;;;;;;;28.30;10.17;;;;;;;-9.21;100.00;96773.88;5071418;28;20283;-67
2021/12/29 07:39:55;;;;;;;23.50;8.87;;;;;;;-9.13;100.00;96773.78;5070783;28;20294;-67
2021/12/29 07:42:22;;;;;;;35.03;13.80;;;;;;;-9.16;100.00;96767.00;5070221;28;20759;-68
2021/12/29 07:44:52;;;;;;;27.20;10.37;;;;;;;-9.27;100.00;96773.91;5054358;28;20337;-68
2021/12/29 07:47:19;;;;;;;26.53;10.27;;;;;;;-9.25;100.00;96784.09;5070930;28;20287;-67
2021/12/29 07:49:46;;;;;;;21.17;9.73;;;;;;;-9.21;100.00;96781.50;5067773;28;20843;-68
2021/12/29 07:52:13;;;;;;;31.23;12.13;;;;;;;-9.17;100.00;96788.28;5069681;28;20287;-68
2021/12/29 07:54:40;;;;;;;29.30;12.90;;;;;;;-9.08;100.00;96783.06;5069545;28;20329;-66
2021/12/29 07:57:09;;;;;;;26.40;8.97;;;;;;;-8.96;100.00;96767.69;5069442;28;20297;-67
2021/12/29 07:59:36;;;;;;;22.03;9.97;;;;;;;-8.79;100.00;96770.88;5068341;28;20767;-68
2021/12/29 08:02:03;;;;;;;29.07;10.33;;;;;;;-8.81;100.00;96780.25;5069174;28;20675;-67
2021/12/29 08:04:30;;;;;;;25.93;9.87;;;;;;;-8.86;100.00;96769.25;5069481;28;20287;-68
2021/12/29 08:06:57;;;;;;;23.83;9.67;;;;;;;-9.00;100.00;96766.00;5069177;28;20336;-67
2021/12/29 08:09:25;;;;;;;21.93;10.07;;;;;;;-9.23;100.00;96757.75;5068510;28;20309;-67
2021/12/29 08:11:52;;;;;;;19.30;8.97;;;;;;;-9.36;100.00;96763.81;5068545;28;20345;-67
2021/12/29 08:14:20;;;;;;;15.83;7.90;;;;;;;-9.60;100.00;96756.38;5071091;28;20385;-68
2021/12/29 08:16:48;;;;;;;20.90;9.67;;;;;;;-9.66;100.00;96761.53;5071171;28;20368;-68
2021/12/29 08:19:16;;;;;;;22.30;9.93;;;;;;;-9.65;100.00;96763.22;5069952;28;20360;-68
2021/12/29 08:21:43;;;;;;;22.83;8.77;;;;;;;-9.62;100.00;96758.13;5067742;28;20299;-67
2021/12/29 08:24:10;;;;;;;20.00;10.23;;;;;;;-9.59;100.00;96764.88;5069489;28;20294;-69
2021/12/29 08:26:37;;;;;;;40.83;11.20;;;;;;;-9.64;100.00;96771.69;5070036;28;20293;-70
2021/12/29 08:29:05;;;;;;;18.20;7.27;;;;;;;-9.68;100.00;96775.13;5069290;28;20370;-70
2021/12/29 08:31:33;;;;;;;16.77;8.73;;;;;;;-9.68;100.00;96778.53;5066822;28;20282;-70
2021/12/29 08:34:00;;;;;;;20.07;9.40;;;;;;;-9.70;100.00;96772.59;5068306;28;20319;-70
2021/12/29 08:36:27;;;;;;;20.17;9.13;;;;;;;-9.50;100.00;96768.19;5068666;28;20298;-70
2021/12/29 08:38:54;;;;;;;19.60;9.40;;;;;;;-9.44;100.00;96763.06;5068482;28;20295;-69
2021/12/29 08:41:21;;;;;;;23.73;9.97;;;;;;;-9.49;100.00;96772.41;5068813;28;20287;-70
2021/12/29 08:43:48;;;;;;;23.87;10.50;;;;;;;-9.41;100.00;96775.75;5067735;28;20374;-69
2021/12/29 08:46:16;;;;;;;26.00;10.07;;;;;;;-9.42;100.00;96774.06;5068832;28;20282;-70
2021/12/29 08:48:45;;;;;;;21.37;9.43;;;;;;;-9.31;100.00;96785.00;5065505;28;20318;-68
2021/12/29 08:51:12;;;;;;;27.93;9.77;;;;;;;-9.08;100.00;96785.63;5066276;28;20843;-69
2021/12/29 08:53:39;;;;;;;22.50;10.27;;;;;;;-8.80;100.00;96781.94;5065764;28;20706;-63
2021/12/29 08:56:07;;;;;;;20.30;9.13;;;;;;;-8.73;100.00;96785.25;5062867;28;20293;-70
2021/12/29 08:58:34;;;;;;;24.87;8.50;;;;;;;-8.83;100.00;96801.50;5065847;28;20320;-69
2021/12/29 09:01:05;;;;;;;26.17;11.77;;;;;;;-8.73;100.00;96796.31;5068671;28;20283;-69
2021/12/29 09:03:32;;;;;;;28.80;11.30;;;;;;;-8.52;100.00;96775.59;5065319;28;20821;-70
2021/12/29 09:06:00;;;;;;;38.03;14.63;;;;;;;-8.62;100.00;96784.28;5063741;28;20297;-70
2021/12/29 09:08:27;;;;;;;41.73;13.77;;;;;;;-8.57;100.00;96772.28;5064081;28;20283;-69
2021/12/29 09:10:55;;;;;;;31.27;12.80;;;;;;;-8.40;100.00;96762.72;5065954;28;21120;-69
2021/12/29 09:13:22;;;;;;;32.10;13.77;;;;;;;-8.27;100.00;96761.66;5065841;28;20305;-68
2021/12/29 09:15:53;;;;;;;29.23;13.10;;;;;;;-8.05;100.00;96770.72;5069953;28;20821;-69
2021/12/29 09:18:21;;;;;;;37.00;13.77;;;;;;;-8.05;99.58;96773.28;5062182;28;20306;-69
2021/12/29 09:20:48;;;;;;;34.57;14.17;;;;;;;-8.11;99.52;96767.44;5064437;28;20301;-67
2021/12/29 09:23:17;;;;;;;52.97;23.27;;;;;;;-8.00;99.46;96774.09;5065557;28;20706;-68
2021/12/29 09:25:47;;;;;;;24.50;9.83;;;;;;;-8.11;98.38;96765.72;5063750;28;20369;-67
2021/12/29 09:28:17;;;;;;;24.53;11.20;;;;;;;-8.17;98.45;96778.56;5062206;28;20287;-67
2021/12/29 09:30:47;;;;;;;31.40;12.13;;;;;;;-8.21;99.00;96776.91;5062426;28;20291;-68
2021/12/29 09:33:16;;;;;;;41.23;18.70;;;;;;;-8.09;99.28;96781.84;5064216;28;20294;-67
2021/12/29 09:35:46;;;;;;;32.73;14.47;;;;;;;-7.96;98.86;96788.50;5063526;28;20291;-68
2021/12/29 09:38:14;;;;;;;30.93;12.17;;;;;;;-8.05;98.30;96782.66;5062663;28;20297;-68
2021/12/29 09:40:44;;;;;;;36.47;12.87;;;;;;;-8.00;98.67;96778.34;5061259;28;20322;-69
2021/12/29 09:43:11;;;;;;;35.27;12.00;;;;;;;-8.05;98.51;96772.47;5067943;28;20802;-69
2021/12/29 09:45:40;;;;;;;36.17;14.23;;;;;;;-7.96;98.83;96762.97;5069547;28;20287;-68
2021/12/29 09:48:07;;;;;;;30.70;12.80;;;;;;;-8.01;98.24;96762.16;5069235;28;20282;-69
2021/12/29 09:50:35;;;;;;;29.30;11.70;;;;;;;-7.97;97.91;96757.88;5071159;28;20370;-69
2021/12/29 09:53:02;;;;;;;28.93;11.70;;;;;;;-7.84;98.37;96757.66;5075289;28;20313;-68
2021/12/29 09:55:30;;;;;;;39.43;14.83;;;;;;;-7.83;98.24;96755.97;5068593;28;20294;-70
2021/12/29 09:57:59;;;;;;;18.50;8.50;;;;;;;-7.83;97.58;96749.13;5073542;28;20377;-68
2021/12/29 10:00:28;;;;;;;27.97;12.17;;;;;;;-7.75;97.99;96754.13;5073378;28;20330;-69
2021/12/29 10:02:58;;;;;;;30.93;12.47;;;;;;;-7.66;97.26;96749.72;5073391;28;20307;-69
2021/12/29 10:05:27;;;;;;;40.10;13.43;;;;;;;-7.60;97.09;96743.66;5073471;28;20344;-68
2021/12/29 10:08:01;;;;;;;37.87;14.73;;;;;;;-7.53;95.96;96746.06;5073414;28;20312;-69
2021/12/29 10:10:29;;;;;;;27.43;9.47;;;;;;;-7.58;96.18;96750.44;5072177;28;20294;-68
2021/12/29 10:12:58;;;;;;;31.70;11.73;;;;;;;-7.57;96.18;96735.97;5073087;28;20374;-68
2021/12/29 10:15:29;;;;;;;30.33;12.33;;;;;;;-7.33;96.25;96741.50;5072781;28;20283;-69
2021/12/29 10:18:05;;;;;;;29.10;10.80;;;;;;;-7.08;95.42;96732.53;5073367;28;20344;-68
2021/12/29 10:20:32;;;;;;;26.00;10.83;;;;;;;-7.11;94.84;96736.84;5073319;28;20282;-69
2021/12/29 10:23:02;;;;;;;26.87;12.63;;;;;;;-6.85;94.24;96730.38;5073079;28;20487;-69
2021/12/29 10:25:32;;;;;;;22.30;10.33;;;;;;;-6.90;93.32;96727.03;5073279;28;20663;-68
2021/12/29 10:28:01;;;;;;;27.77;13.23;;;;;;;-6.97;92.98;96716.97;5073273;28;20352;-68
2021/12/29 10:30:31;;;;;;;18.30;8.50;;;;;;;-7.12;92.61;96728.31;5072707;28;20293;-68
2021/12/29 10:33:09;;;;;;;21.27;9.30;;;;;;;-7.13;92.66;96725.81;5072903;28;20293;-69
2021/12/29 10:35:36;;;;;;;37.77;12.43;;;;;;;-6.95;93.09;96733.13;5073269;28;20295;-69
2021/12/29 10:38:12;;;;;;;27.83;12.83;;;;;;;-6.98;92.39;96721.22;5073208;28;20294;-69
2021/12/29 10:40:39;;;;;;;31.47;12.43;;;;;;;-6.75;92.99;96711.41;5072454;28;20398;-71
2021/12/29 10:43:08;;;;;;;36.77;13.67;;;;;;;-6.78;92.01;96702.94;5070581;28;20647;-67
2021/12/29 10:45:37;;;;;;;27.10;12.43;;;;;;;-6.74;92.88;96707.97;5070814;28;20287;-69
2021/12/29 10:48:19;;;;;;;18.73;9.80;;;;;;;-6.46;91.37;96711.66;5070735;28;20287;-66
2021/12/29 10:50:56;;;;;;;33.43;13.77;;;;;;;-6.60;91.15;96705.13;5071979;28;20282;-66
2021/12/29 10:53:23;;;;;;;32.03;12.73;;;;;;;-6.64;91.87;96704.38;5070416;28;20275;-66
2021/12/29 10:55:50;;;;;;;35.00;12.90;;;;;;;-6.76;92.24;96708.88;5070377;28;20283;-67
2021/12/29 10:58:20;;;;;;;22.03;9.67;;;;;;;-6.80;92.08;96704.72;5071698;28;20302;-68
2021/12/29 11:00:50;;;;;;;35.57;12.60;;;;;;;-6.90;92.91;96716.81;5071954;28;20464;-68
2021/12/29 11:03:19;;;;;;;26.10;8.63;;;;;;;-6.94;92.28;96696.47;5070896;28;20385;-67
2021/12/29 11:05:48;;;;;;;37.83;14.73;;;;;;;-7.03;93.45;96702.59;5072528;28;20307;-67
2021/12/29 11:08:17;;;;;;;29.80;11.37;;;;;;;-6.95;94.12;96687.06;5071719;28;20286;-66
2021/12/29 11:10:45;;;;;;;26.70;10.07;;;;;;;-6.83;93.97;96679.19;5071295;28;20749;-68
2021/12/29 11:13:12;;;;;;;20.17;8.03;;;;;;;-7.01;93.63;96690.59;5071656;28;20341;-67
2021/12/29 11:15:43;;;;;;;17.97;8.20;;;;;;;-7.12;94.86;96686.56;5071758;28;20279;-67
2021/12/29 11:18:12;;;;;;;27.80;10.63;;;;;;;-7.16;95.43;96693.44;5071731;28;20382;-67
2021/12/29 11:20:40;;;;;;;29.20;11.57;;;;;;;-7.17;94.66;96701.13;5069708;28;20298;-65
2021/12/29 11:23:10;;;;;;;18.37;8.93;;;;;;;-7.14;96.14;96696.81;5071227;28;20299;-68
2021/12/29 11:25:39;;;;;;;32.73;13.03;;;;;;;-7.16;96.35;96713.91;5070896;28;20370;-68